Gretchen H — WDC9138 — position and weather

sailwx.info

Track history (hours):
 
Tides and Currents Weather Stations Pressure Air Temp Water Temp Dewpoint Dewpoint Depression Visibility Wind Speed Wind Dir Waves Ship Positions

Gretchen H

Owner: BOYER TOWING INC, KETCHIKAN, AK. More information available from US FCC via Universal Licensing System and Coast Guard Vessel Documentation Center.

Last reported at 2018-Jun-14 23:44 UTC. Time now 2018-Jun-19 10:23 UTC.
Position N 58°18' W 136°13'.

Type: Tow > 200 m length. MMSI: 367098050.

Date/timePositionNaut miles runAvg speedWind from/ knotsBaromVisibWave heightAir tempDewpointWater temp
2018-Jun-14 23:44N 58°18' W 136°13'2 7.4
2018-Jun-14 23:30N 58°19' W 136°10'5 9.0
2018-Jun-14 23:00N 58°20' W 136°02'4 8.4
2018-Jun-14 22:30N 58°19' W 135°54'4 8.0
2018-Jun-14 22:00N 58°18' W 135°47'4 7.2
2018-Jun-14 21:24N 58°16' W 135°39'3 7.8
2018-Jun-14 21:00N 58°15' W 135°34'270 6.0
2018-Jun-13 00:00N 54°37' W 130°45'4 8.5
2018-Jun-12 23:30N 54°33' W 130°43'4 8.1
2018-Jun-12 22:59N 54°29' W 130°41'4 8.0
2018-Jun-12 22:30N 54°26' W 130°39'4 8.1
2018-Jun-12 22:00N 54°22' W 130°37'4 8.4
2018-Jun-12 21:30N 54°18' W 130°35'4 8.5
2018-Jun-12 21:00N 54°14' W 130°31'4 8.4
2018-Jun-12 20:30N 54°11' W 130°27'4 8.4
2018-Jun-12 20:00N 54°07' W 130°23'4 8.6
2018-Jun-12 19:30N 54°04' W 130°17'4 8.8
2018-Jun-12 19:00N 54°01' W 130°13'4 8.4
2018-Jun-12 18:30N 53°57' W 130°12'4 8.1
2018-Jun-12 18:00N 53°54' W 130°07'4 8.6
2018-Jun-12 17:30N 53°51' W 130°02'4 8.5
2018-Jun-12 17:00N 53°48' W 129°57'84 7.0
2018-Jun-12 04:56N 52°42' W 128°28'4 7.2
2018-Jun-12 04:21N 52°38' W 128°28'3 7.7
2018-Jun-12 03:57N 52°35' W 128°28'4 7.7
2018-Jun-12 03:23N 52°31' W 128°28'3 7.1
2018-Jun-12 02:59N 52°28' W 128°27'4 7.9
2018-Jun-12 02:30N 52°24' W 128°30'4 7.7
2018-Jun-12 02:00N 52°21' W 128°31'4 7.4
2018-Jun-12 01:30N 52°18' W 128°28'4 7.5
2018-Jun-12 01:00N 52°15' W 128°23'4 8.0
2018-Jun-12 00:30N 52°15' W 128°16'4 7.9
2018-Jun-11 23:59N 52°14' W 128°10'3 6.7
2018-Jun-11 23:30N 52°11' W 128°06'4 7.0
2018-Jun-11 23:00N 52°08' W 128°08'3 6.6
2018-Jun-11 22:30N 52°05' W 128°05'4 7.7
2018-Jun-11 22:00N 52°05' W 127°59'3 6.8
2018-Jun-11 21:30N 52°02' W 127°55'3 6.9
2018-Jun-11 21:00N 51°59' W 127°56'4 7.3
2018-Jun-11 20:30N 51°55' W 127°56'4 7.3
2018-Jun-11 20:00N 51°51' W 127°55'4 7.4
2018-Jun-11 19:30N 51°48' W 127°55'4 7.4
2018-Jun-11 19:00N 51°44' W 127°55'4 7.6
2018-Jun-11 18:30N 51°40' W 127°54'4 7.8
2018-Jun-11 18:00N 51°36' W 127°53'4 7.7
2018-Jun-11 17:30N 51°33' W 127°52'4 7.6
2018-Jun-11 16:59N 51°29' W 127°51'4 7.4
2018-Jun-11 16:25N 51°25' W 127°51'3 7.5
2018-Jun-11 16:00N 51°21' W 127°52'5 7.4
2018-Jun-11 15:22N 51°17' W 127°53'3 7.4
2018-Jun-11 14:58N 51°14' W 127°52'4 7.8
2018-Jun-11 14:28N 51°10' W 127°51'4 7.6
2018-Jun-11 14:00N 51°07' W 127°48'4 7.7
2018-Jun-11 13:30N 51°05' W 127°43'4 7.8
2018-Jun-11 13:00N 51°02' W 127°38'4 8.2
2018-Jun-11 12:30N 50°59' W 127°34'4 8.3
2018-Jun-11 12:00N 50°57' W 127°28'5 9.3
2018-Jun-11 11:30N 50°54' W 127°23'4 8.2
2018-Jun-11 11:01N 50°51' W 127°18'4 8.0
2018-Jun-11 10:30N 50°49' W 127°13'4 7.9
2018-Jun-11 10:01N 50°46' W 127°08'4 8.0
2018-Jun-11 09:30N 50°44' W 127°03'4 7.9
2018-Jun-11 08:59N 50°42' W 126°57'4 7.3
2018-Jun-11 08:28N 50°40' W 126°52'4 6.8
2018-Jun-11 07:51N 50°37' W 126°47'2 7.1
2018-Jun-11 07:30N 50°36' W 126°44'3 5.9
2018-Jun-11 07:00N 50°34' W 126°41'5 6.8
2018-Jun-11 06:14N 50°31' W 126°34'3 7.5
2018-Jun-11 05:48N 50°30' W 126°29'2 7.4
2018-Jun-11 05:29N 50°30' W 126°25'39 8.3
2018-Jun-11 00:48N 50°20' W 125°26'3 8.6
2018-Jun-11 00:30N 50°18' W 125°25'5 9.2
2018-Jun-11 00:00N 50°14' W 125°23'4 8.2
2018-Jun-10 23:30N 50°10' W 125°22'3 5.9
2018-Jun-10 22:59N 50°07' W 125°19'2 3.4
2018-Jun-10 22:30N 50°06' W 125°17'3 5.9
2018-Jun-10 22:00N 50°03' W 125°14'2 4.5
2018-Jun-10 21:30N 50°01' W 125°13'3 5.1
2018-Jun-10 21:00N 49°59' W 125°11'3 4.8
2018-Jun-10 20:28N 49°57' W 125°08'1 2.9
2018-Jun-10 20:00N 49°56' W 125°07'2 3.6
2018-Jun-10 19:30N 49°55' W 125°05'1 2.8
2018-Jun-10 19:00N 49°54' W 125°04'1 2.8
2018-Jun-10 18:29N 49°53' W 125°02'1 2.7
2018-Jun-10 17:59N 49°52' W 125°01'2 3.6
2018-Jun-10 17:30N 49°51' W 124°58'2 4.5
2018-Jun-10 17:00N 49°49' W 124°56'2 4.1
2018-Jun-10 16:30N 49°48' W 124°53'2 3.7
2018-Jun-10 16:00N 49°47' W 124°51'2 3.7
2018-Jun-10 15:30N 49°46' W 124°48'3 5.5
2018-Jun-10 15:00N 49°44' W 124°45'3 7.0
2018-Jun-10 14:30N 49°42' W 124°41'8 7.2
2018-Jun-10 13:27N 49°37' W 124°32'20 6.8
2018-Jun-10 10:28N 49°27' W 124°05'23 7.0
2018-Jun-10 07:11N 49°14' W 123°36'1 7.8
2018-Jun-10 07:00N 49°13' W 123°34'4 7.4
2018-Jun-10 06:27N 49°10' W 123°30'3 7.1
2018-Jun-10 05:58N 49°08' W 123°26'4 7.0
2018-Jun-10 05:23N 49°05' W 123°22'3 7.1
2018-Jun-10 05:00N 49°03' W 123°18'3 6.9
2018-Jun-10 04:30N 49°01' W 123°14'4 7.5
2018-Jun-10 03:57N 48°58' W 123°10'3 7.5
2018-Jun-10 03:30N 48°56' W 123°06'7 7.2
2018-Jun-10 02:28N 48°51' W 122°57'9 7.0
2018-Jun-10 01:11N 48°46' W 122°46'2 6.8
2018-Jun-10 00:58N 48°44' W 122°45'3 6.9
2018-Jun-10 00:30N 48°42' W 122°43'3 6.7
2018-Jun-10 00:00N 48°38' W 122°44'3 6.8
2018-Jun-09 23:30N 48°35' W 122°45'4 7.2
2018-Jun-09 23:00N 48°31' W 122°44'4 7.5
2018-Jun-09 22:29N 48°27' W 122°44'6 7.5
2018-Jun-09 21:40N 48°21' W 122°45'1 7.3
2018-Jun-09 21:30N 48°20' W 122°45'12 5.1
2018-Jun-09 19:13N 48°09' W 122°42'2 5.4
2018-Jun-09 18:48N 48°07' W 122°39'2 6.9
2018-Jun-09 18:27N 48°05' W 122°38'3 6.6
2018-Jun-09 17:59N 48°02' W 122°37'5 6.8
2018-Jun-09 17:19N 47°58' W 122°34'2 6.8
2018-Jun-09 17:00N 47°57' W 122°31'5 7.4
2018-Jun-09 16:22N 47°53' W 122°28'3 7.7
2018-Jun-09 16:00N 47°50' W 122°27'8 7.7
2018-Jun-09 15:00N 47°42' W 122°26'4 7.5
2018-Jun-09 14:30N 47°38' W 122°26'3 6.5
2018-Jun-09 14:00N 47°36' W 122°23'1 1.4
2018-Jun-09 13:30N 47°35' W 122°22'0 0.0
2018-Jun-09 13:00N 47°35' W 122°22'2 4.7
2018-Jun-09 12:30N 47°33' W 122°21'1 2.4
2018-Jun-09 12:00N 47°32' W 122°20'0 0.0
2018-Jun-09 11:30N 47°32' W 122°20'0 0.0
2018-Jun-09 11:00N 47°32' W 122°20'0 0.0
2018-Jun-09 10:30N 47°32' W 122°20'0 0.0
2018-Jun-09 10:00N 47°32' W 122°20'0 0.0
2018-Jun-09 09:30N 47°32' W 122°20'0 0.0
2018-Jun-09 09:00N 47°32' W 122°20'0 0.0
2018-Jun-09 08:30N 47°32' W 122°20'1 1.5
2018-Jun-09 08:00N 47°33' W 122°20'2 4.9
2018-Jun-09 07:30N 47°35' W 122°21'0 0.0
2018-Jun-09 07:00N 47°35' W 122°21'0 0.0
2018-Jun-09 06:30N 47°35' W 122°21'0 0.0
2018-Jun-09 06:00N 47°35' W 122°21'0 0.0
2018-Jun-09 05:30N 47°35' W 122°21'0 0.0
2018-Jun-09 05:00N 47°35' W 122°21'0 0.0
2018-Jun-09 04:28N 47°35' W 122°21'0 0.0
2018-Jun-09 04:00N 47°35' W 122°21'0 0.0
2018-Jun-09 03:30N 47°35' W 122°21'0 0.0
2018-Jun-09 03:00N 47°35' W 122°21'0 0.0
2018-Jun-09 02:29N 47°35' W 122°21'0 0.0
2018-Jun-09 02:00N 47°35' W 122°21'1 2.2
2018-Jun-09 01:31N 47°36' W 122°22'1 2.4
2018-Jun-09 01:00N 47°37' W 122°24'3 5.7
2018-Jun-09 00:30N 47°39' W 122°27'3 5.2
2018-Jun-09 00:00N 47°41' W 122°28'3 5.6
2018-Jun-08 23:30N 47°44' W 122°27'3 5.8
2018-Jun-08 23:00N 47°47' W 122°27'3 6.2
2018-Jun-08 22:30N 47°50' W 122°29'3 5.7
2018-Jun-08 22:00N 47°53' W 122°29'3 5.7
2018-Jun-08 21:29N 47°55' W 122°31'4 6.0
2018-Jun-08 20:53N 47°58' W 122°35'2 6.1
2018-Jun-08 20:29N 47°60' W 122°37'3 5.7
2018-Jun-08 19:56N 48°03' W 122°39'5 5.7
2018-Jun-08 19:05N 48°07' W 122°42'13 5.8
2018-Jun-08 16:50N 48°20' W 122°47'2 5.8
2018-Jun-08 16:24N 48°22' W 122°45'4 6.2
2018-Jun-08 15:48N 48°26' W 122°44'2 6.3
2018-Jun-08 15:30N 48°28' W 122°44'3 6.7
2018-Jun-08 15:00N 48°31' W 122°44'4 7.6
2018-Jun-08 14:30N 48°35' W 122°46'4 8.2
2018-Jun-08 13:59N 48°39' W 122°44'3 6.9
2018-Jun-08 13:30N 48°42' W 122°45'4 6.9
2018-Jun-08 12:59N 48°45' W 122°48'3 6.4
2018-Jun-08 12:30N 48°47' W 122°52'12 6.6
2018-Jun-08 10:36N 48°54' W 123°08'2 6.8
2018-Jun-08 10:22N 48°55' W 123°10'3 6.7
2018-Jun-08 09:59N 48°56' W 123°13'3 6.7
2018-Jun-08 09:28N 48°59' W 123°17'3 6.5
2018-Jun-08 08:58N 49°01' W 123°20'3 6.6
2018-Jun-08 08:28N 49°03' W 123°24'3 6.0
2018-Jun-08 08:00N 49°06' W 123°26'3 5.9
2018-Jun-08 07:27N 49°08' W 123°29'3 5.6
2018-Jun-08 06:59N 49°10' W 123°31'3 5.6
2018-Jun-08 06:24N 49°13' W 123°35'3 5.5
2018-Jun-08 05:53N 49°15' W 123°38'36 5.4
2018-Jun-07 23:17N 49°34' W 124°24'2 5.5
2018-Jun-07 22:59N 49°35' W 124°26'3 5.2
2018-Jun-07 22:27N 49°37' W 124°30'2 4.8
2018-Jun-07 22:00N 49°38' W 124°32'3 5.0
2018-Jun-07 21:30N 49°39' W 124°36'2 4.9
2018-Jun-07 21:00N 49°41' W 124°39'3 5.2
2018-Jun-07 20:30N 49°42' W 124°42'3 5.2
2018-Jun-07 20:00N 49°44' W 124°45'3 5.1
2018-Jun-07 19:30N 49°46' W 124°48'2 4.9
2018-Jun-07 19:00N 49°47' W 124°51'3 5.1
2018-Jun-07 18:30N 49°49' W 124°54'3 5.8
2018-Jun-07 18:00N 49°51' W 124°58'3 6.6
2018-Jun-07 17:29N 49°53' W 125°02'3 6.2
2018-Jun-07 17:00N 49°55' W 125°05'3 6.1
2018-Jun-07 16:30N 49°57' W 125°09'3 6.6
2018-Jun-07 15:59N 49°60' W 125°12'4 8.0
2018-Jun-07 15:30N 50°03' W 125°14'3 6.8
2018-Jun-07 15:00N 50°06' W 125°17'3 5.9
2018-Jun-07 14:30N 50°08' W 125°21'3 5.6
2018-Jun-07 14:01N 50°10' W 125°22'2 4.6
2018-Jun-07 13:30N 50°13' W 125°23'3 5.4
2018-Jun-07 13:00N 50°15' W 125°24'3 5.3
2018-Jun-07 12:26N 50°18' W 125°25'2 5.0
2018-Jun-07 12:00N 50°20' W 125°26'10 3.5
2018-Jun-07 09:12N 50°22' W 125°41'28 5.6
2018-Jun-07 04:08N 50°30' W 126°24'3 6.6
2018-Jun-07 03:44N 50°30' W 126°28'2 6.3
2018-Jun-07 03:27N 50°30' W 126°31'8 5.8
2018-Jun-07 02:09N 50°33' W 126°41'3 7.3
2018-Jun-07 01:42N 50°36' W 126°44'2 6.7
2018-Jun-07 01:28N 50°37' W 126°46'3 6.7
2018-Jun-07 00:59N 50°39' W 126°50'23 6.4
2018-Jun-06 21:26N 50°53' W 127°19'3 6.1
2018-Jun-06 21:00N 50°54' W 127°23'3 5.7
2018-Jun-06 20:30N 50°56' W 127°26'3 5.1
2018-Jun-06 20:00N 50°57' W 127°29'3 5.5
2018-Jun-06 19:30N 50°59' W 127°33'3 5.3
2018-Jun-06 19:00N 51°01' W 127°36'3 5.5
2018-Jun-06 18:30N 51°03' W 127°39'3 5.3
2018-Jun-06 17:59N 51°05' W 127°42'3 5.3
2018-Jun-06 17:28N 51°06' W 127°45'3 5.4
2018-Jun-06 17:00N 51°08' W 127°48'3 5.1
2018-Jun-06 16:30N 51°10' W 127°50'3 5.5
2018-Jun-06 16:00N 51°13' W 127°52'4 5.9
2018-Jun-06 15:19N 51°17' W 127°52'3 5.8
2018-Jun-06 14:47N 51°20' W 127°52'2 5.4
2018-Jun-06 14:26N 51°22' W 127°52'2 5.4
2018-Jun-06 13:59N 51°24' W 127°52'3 5.8
2018-Jun-06 13:30N 51°27' W 127°52'2 3.3
2018-Jun-06 13:00N 51°29' W 127°52'1 2.4
2018-Jun-06 12:30N 51°30' W 127°52'1 2.1
2018-Jun-06 12:00N 51°31' W 127°52'1 1.8
2018-Jun-06 11:30N 51°32' W 127°52'1 1.7
2018-Jun-06 11:00N 51°33' W 127°52'0 0.9
2018-Jun-06 10:30N 51°33' W 127°52'0 0.8
2018-Jun-06 10:00N 51°33' W 127°53'0 1.0
2018-Jun-06 09:31N 51°34' W 127°53'1 1.0
2018-Jun-06 09:00N 51°34' W 127°53'1 1.3
2018-Jun-06 08:31N 51°35' W 127°53'1 1.3
2018-Jun-06 08:00N 51°36' W 127°54'1 1.4
2018-Jun-06 07:30N 51°36' W 127°54'1 1.4
2018-Jun-06 07:00N 51°37' W 127°54'2 3.2
2018-Jun-06 06:30N 51°39' W 127°54'2 5.0
2018-Jun-06 06:01N 51°41' W 127°55'3 5.1
2018-Jun-06 05:30N 51°44' W 127°55'3 5.1
2018-Jun-06 05:01N 51°46' W 127°56'3 5.2
2018-Jun-06 04:31N 51°49' W 127°56'3 5.2
2018-Jun-06 04:00N 51°51' W 127°56'3 5.9
2018-Jun-06 03:30N 51°54' W 127°56'3 6.4
2018-Jun-06 03:00N 51°57' W 127°56'3 6.7
2018-Jun-06 02:31N 52°01' W 127°56'3 6.3
2018-Jun-06 02:00N 52°04' W 127°56'3 5.2
2018-Jun-06 01:30N 52°05' W 128°01'3 5.5
2018-Jun-06 01:00N 52°05' W 128°05'3 5.4
2018-Jun-06 00:30N 52°07' W 128°08'3 6.1
2018-Jun-06 00:00N 52°10' W 128°08'2 4.7
2018-Jun-05 23:30N 52°12' W 128°06'3 5.6
2018-Jun-05 23:00N 52°14' W 128°09'3 5.5
2018-Jun-05 22:29N 52°14' W 128°14'3 5.3
2018-Jun-05 21:59N 52°15' W 128°18'2 4.8
2018-Jun-05 21:30N 52°15' W 128°22'2 4.7
2018-Jun-05 21:00N 52°16' W 128°25'3 5.2
2018-Jun-05 20:30N 52°18' W 128°28'2 5.0
2018-Jun-05 20:00N 52°20' W 128°30'3 5.1
2018-Jun-05 19:30N 52°22' W 128°31'3 5.9
2018-Jun-05 18:59N 52°25' W 128°29'3 6.7
2018-Jun-05 18:30N 52°28' W 128°27'6 7.2
2018-Jun-05 17:38N 52°35' W 128°28'89 6.1
2018-Jun-05 03:06N 53°47' W 129°55'1 5.7
2018-Jun-05 02:59N 53°47' W 129°56'3 6.1
2018-Jun-05 02:30N 53°49' W 129°59'3 6.0
2018-Jun-05 02:00N 53°52' W 130°03'3 5.8
2018-Jun-05 01:30N 53°53' W 130°07'3 5.7
2018-Jun-05 01:00N 53°55' W 130°11'3 5.3
2018-Jun-05 00:30N 53°57' W 130°12'3 5.7
2018-Jun-05 00:00N 54°00' W 130°13'  
Track history (hours):
 
Tides and Currents Weather Stations Pressure Air Temp Water Temp Dewpoint Dewpoint Depression Visibility Wind Speed Wind Dir Waves Ship Positions

Gretchen H

Owner: BOYER TOWING INC, KETCHIKAN, AK. More information available from US FCC via Universal Licensing System and Coast Guard Vessel Documentation Center.

Last reported at 2018-Jun-14 23:44 UTC. Time now 2018-Jun-19 10:23 UTC.
Position N 58°18' W 136°13'.

Type: Tow > 200 m length. MMSI: 367098050.

Date/timePositionNaut miles runAvg speedWind from/ knotsBaromVisibWave heightAir tempDewpointWater temp
2018-Jun-14 23:44N 58°18' W 136°13'2 7.4
2018-Jun-14 23:30N 58°19' W 136°10'5 9.0
2018-Jun-14 23:00N 58°20' W 136°02'4 8.4
2018-Jun-14 22:30N 58°19' W 135°54'4 8.0
2018-Jun-14 22:00N 58°18' W 135°47'4 7.2
2018-Jun-14 21:24N 58°16' W 135°39'3 7.8
2018-Jun-14 21:00N 58°15' W 135°34'270 6.0
2018-Jun-13 00:00N 54°37' W 130°45'4 8.5
2018-Jun-12 23:30N 54°33' W 130°43'4 8.1
2018-Jun-12 22:59N 54°29' W 130°41'4 8.0
2018-Jun-12 22:30N 54°26' W 130°39'4 8.1
2018-Jun-12 22:00N 54°22' W 130°37'4 8.4
2018-Jun-12 21:30N 54°18' W 130°35'4 8.5
2018-Jun-12 21:00N 54°14' W 130°31'4 8.4
2018-Jun-12 20:30N 54°11' W 130°27'4 8.4
2018-Jun-12 20:00N 54°07' W 130°23'4 8.6
2018-Jun-12 19:30N 54°04' W 130°17'4 8.8
2018-Jun-12 19:00N 54°01' W 130°13'4 8.4
2018-Jun-12 18:30N 53°57' W 130°12'4 8.1
2018-Jun-12 18:00N 53°54' W 130°07'4 8.6
2018-Jun-12 17:30N 53°51' W 130°02'4 8.5
2018-Jun-12 17:00N 53°48' W 129°57'84 7.0
2018-Jun-12 04:56N 52°42' W 128°28'4 7.2
2018-Jun-12 04:21N 52°38' W 128°28'3 7.7
2018-Jun-12 03:57N 52°35' W 128°28'4 7.7
2018-Jun-12 03:23N 52°31' W 128°28'3 7.1
2018-Jun-12 02:59N 52°28' W 128°27'4 7.9
2018-Jun-12 02:30N 52°24' W 128°30'4 7.7
2018-Jun-12 02:00N 52°21' W 128°31'4 7.4
2018-Jun-12 01:30N 52°18' W 128°28'4 7.5
2018-Jun-12 01:00N 52°15' W 128°23'4 8.0
2018-Jun-12 00:30N 52°15' W 128°16'4 7.9
2018-Jun-11 23:59N 52°14' W 128°10'3 6.7
2018-Jun-11 23:30N 52°11' W 128°06'4 7.0
2018-Jun-11 23:00N 52°08' W 128°08'3 6.6
2018-Jun-11 22:30N 52°05' W 128°05'4 7.7
2018-Jun-11 22:00N 52°05' W 127°59'3 6.8
2018-Jun-11 21:30N 52°02' W 127°55'3 6.9
2018-Jun-11 21:00N 51°59' W 127°56'4 7.3
2018-Jun-11 20:30N 51°55' W 127°56'4 7.3
2018-Jun-11 20:00N 51°51' W 127°55'4 7.4
2018-Jun-11 19:30N 51°48' W 127°55'4 7.4
2018-Jun-11 19:00N 51°44' W 127°55'4 7.6
2018-Jun-11 18:30N 51°40' W 127°54'4 7.8
2018-Jun-11 18:00N 51°36' W 127°53'4 7.7
2018-Jun-11 17:30N 51°33' W 127°52'4 7.6
2018-Jun-11 16:59N 51°29' W 127°51'4 7.4
2018-Jun-11 16:25N 51°25' W 127°51'3 7.5
2018-Jun-11 16:00N 51°21' W 127°52'5 7.4
2018-Jun-11 15:22N 51°17' W 127°53'3 7.4
2018-Jun-11 14:58N 51°14' W 127°52'4 7.8
2018-Jun-11 14:28N 51°10' W 127°51'4 7.6
2018-Jun-11 14:00N 51°07' W 127°48'4 7.7
2018-Jun-11 13:30N 51°05' W 127°43'4 7.8
2018-Jun-11 13:00N 51°02' W 127°38'4 8.2
2018-Jun-11 12:30N 50°59' W 127°34'4 8.3
2018-Jun-11 12:00N 50°57' W 127°28'5 9.3
2018-Jun-11 11:30N 50°54' W 127°23'4 8.2
2018-Jun-11 11:01N 50°51' W 127°18'4 8.0
2018-Jun-11 10:30N 50°49' W 127°13'4 7.9
2018-Jun-11 10:01N 50°46' W 127°08'4 8.0
2018-Jun-11 09:30N 50°44' W 127°03'4 7.9
2018-Jun-11 08:59N 50°42' W 126°57'4 7.3
2018-Jun-11 08:28N 50°40' W 126°52'4 6.8
2018-Jun-11 07:51N 50°37' W 126°47'2 7.1
2018-Jun-11 07:30N 50°36' W 126°44'3 5.9
2018-Jun-11 07:00N 50°34' W 126°41'5 6.8
2018-Jun-11 06:14N 50°31' W 126°34'3 7.5
2018-Jun-11 05:48N 50°30' W 126°29'2 7.4
2018-Jun-11 05:29N 50°30' W 126°25'39 8.3
2018-Jun-11 00:48N 50°20' W 125°26'3 8.6
2018-Jun-11 00:30N 50°18' W 125°25'5 9.2
2018-Jun-11 00:00N 50°14' W 125°23'4 8.2
2018-Jun-10 23:30N 50°10' W 125°22'3 5.9
2018-Jun-10 22:59N 50°07' W 125°19'2 3.4
2018-Jun-10 22:30N 50°06' W 125°17'3 5.9
2018-Jun-10 22:00N 50°03' W 125°14'2 4.5
2018-Jun-10 21:30N 50°01' W 125°13'3 5.1
2018-Jun-10 21:00N 49°59' W 125°11'3 4.8
2018-Jun-10 20:28N 49°57' W 125°08'1 2.9
2018-Jun-10 20:00N 49°56' W 125°07'2 3.6
2018-Jun-10 19:30N 49°55' W 125°05'1 2.8
2018-Jun-10 19:00N 49°54' W 125°04'1 2.8
2018-Jun-10 18:29N 49°53' W 125°02'1 2.7
2018-Jun-10 17:59N 49°52' W 125°01'2 3.6
2018-Jun-10 17:30N 49°51' W 124°58'2 4.5
2018-Jun-10 17:00N 49°49' W 124°56'2 4.1
2018-Jun-10 16:30N 49°48' W 124°53'2 3.7
2018-Jun-10 16:00N 49°47' W 124°51'2 3.7
2018-Jun-10 15:30N 49°46' W 124°48'3 5.5
2018-Jun-10 15:00N 49°44' W 124°45'3 7.0
2018-Jun-10 14:30N 49°42' W 124°41'8 7.2
2018-Jun-10 13:27N 49°37' W 124°32'20 6.8
2018-Jun-10 10:28N 49°27' W 124°05'23 7.0
2018-Jun-10 07:11N 49°14' W 123°36'1 7.8
2018-Jun-10 07:00N 49°13' W 123°34'4 7.4
2018-Jun-10 06:27N 49°10' W 123°30'3 7.1
2018-Jun-10 05:58N 49°08' W 123°26'4 7.0
2018-Jun-10 05:23N 49°05' W 123°22'3 7.1
2018-Jun-10 05:00N 49°03' W 123°18'3 6.9
2018-Jun-10 04:30N 49°01' W 123°14'4 7.5
2018-Jun-10 03:57N 48°58' W 123°10'3 7.5
2018-Jun-10 03:30N 48°56' W 123°06'7 7.2
2018-Jun-10 02:28N 48°51' W 122°57'9 7.0
2018-Jun-10 01:11N 48°46' W 122°46'2 6.8
2018-Jun-10 00:58N 48°44' W 122°45'3 6.9
2018-Jun-10 00:30N 48°42' W 122°43'3 6.7
2018-Jun-10 00:00N 48°38' W 122°44'3 6.8
2018-Jun-09 23:30N 48°35' W 122°45'4 7.2
2018-Jun-09 23:00N 48°31' W 122°44'4 7.5
2018-Jun-09 22:29N 48°27' W 122°44'6 7.5
2018-Jun-09 21:40N 48°21' W 122°45'1 7.3
2018-Jun-09 21:30N 48°20' W 122°45'12 5.1
2018-Jun-09 19:13N 48°09' W 122°42'2 5.4
2018-Jun-09 18:48N 48°07' W 122°39'2 6.9
2018-Jun-09 18:27N 48°05' W 122°38'3 6.6
2018-Jun-09 17:59N 48°02' W 122°37'5 6.8
2018-Jun-09 17:19N 47°58' W 122°34'2 6.8
2018-Jun-09 17:00N 47°57' W 122°31'5 7.4
2018-Jun-09 16:22N 47°53' W 122°28'3 7.7
2018-Jun-09 16:00N 47°50' W 122°27'8 7.7
2018-Jun-09 15:00N 47°42' W 122°26'4 7.5
2018-Jun-09 14:30N 47°38' W 122°26'3 6.5
2018-Jun-09 14:00N 47°36' W 122°23'1 1.4
2018-Jun-09 13:30N 47°35' W 122°22'0 0.0
2018-Jun-09 13:00N 47°35' W 122°22'2 4.7
2018-Jun-09 12:30N 47°33' W 122°21'1 2.4
2018-Jun-09 12:00N 47°32' W 122°20'0 0.0
2018-Jun-09 11:30N 47°32' W 122°20'0 0.0
2018-Jun-09 11:00N 47°32' W 122°20'0 0.0
2018-Jun-09 10:30N 47°32' W 122°20'0 0.0
2018-Jun-09 10:00N 47°32' W 122°20'0 0.0
2018-Jun-09 09:30N 47°32' W 122°20'0 0.0
2018-Jun-09 09:00N 47°32' W 122°20'0 0.0
2018-Jun-09 08:30N 47°32' W 122°20'1 1.5
2018-Jun-09 08:00N 47°33' W 122°20'2 4.9
2018-Jun-09 07:30N 47°35' W 122°21'0 0.0
2018-Jun-09 07:00N 47°35' W 122°21'0 0.0
2018-Jun-09 06:30N 47°35' W 122°21'0 0.0
2018-Jun-09 06:00N 47°35' W 122°21'0 0.0
2018-Jun-09 05:30N 47°35' W 122°21'0 0.0
2018-Jun-09 05:00N 47°35' W 122°21'0 0.0
2018-Jun-09 04:28N 47°35' W 122°21'0 0.0
2018-Jun-09 04:00N 47°35' W 122°21'0 0.0
2018-Jun-09 03:30N 47°35' W 122°21'0 0.0
2018-Jun-09 03:00N 47°35' W 122°21'0 0.0
2018-Jun-09 02:29N 47°35' W 122°21'0 0.0
2018-Jun-09 02:00N 47°35' W 122°21'1 2.2
2018-Jun-09 01:31N 47°36' W 122°22'1 2.4
2018-Jun-09 01:00N 47°37' W 122°24'3 5.7
2018-Jun-09 00:30N 47°39' W 122°27'3 5.2
2018-Jun-09 00:00N 47°41' W 122°28'3 5.6
2018-Jun-08 23:30N 47°44' W 122°27'3 5.8
2018-Jun-08 23:00N 47°47' W 122°27'3 6.2
2018-Jun-08 22:30N 47°50' W 122°29'3 5.7
2018-Jun-08 22:00N 47°53' W 122°29'3 5.7
2018-Jun-08 21:29N 47°55' W 122°31'4 6.0
2018-Jun-08 20:53N 47°58' W 122°35'2 6.1
2018-Jun-08 20:29N 47°60' W 122°37'3 5.7
2018-Jun-08 19:56N 48°03' W 122°39'5 5.7
2018-Jun-08 19:05N 48°07' W 122°42'13 5.8
2018-Jun-08 16:50N 48°20' W 122°47'2 5.8
2018-Jun-08 16:24N 48°22' W 122°45'4 6.2
2018-Jun-08 15:48N 48°26' W 122°44'2 6.3
2018-Jun-08 15:30N 48°28' W 122°44'3 6.7
2018-Jun-08 15:00N 48°31' W 122°44'4 7.6
2018-Jun-08 14:30N 48°35' W 122°46'4 8.2
2018-Jun-08 13:59N 48°39' W 122°44'3 6.9
2018-Jun-08 13:30N 48°42' W 122°45'4 6.9
2018-Jun-08 12:59N 48°45' W 122°48'3 6.4
2018-Jun-08 12:30N 48°47' W 122°52'12 6.6
2018-Jun-08 10:36N 48°54' W 123°08'2 6.8
2018-Jun-08 10:22N 48°55' W 123°10'3 6.7
2018-Jun-08 09:59N 48°56' W 123°13'3 6.7
2018-Jun-08 09:28N 48°59' W 123°17'3 6.5
2018-Jun-08 08:58N 49°01' W 123°20'3 6.6
2018-Jun-08 08:28N 49°03' W 123°24'3 6.0
2018-Jun-08 08:00N 49°06' W 123°26'3 5.9
2018-Jun-08 07:27N 49°08' W 123°29'3 5.6
2018-Jun-08 06:59N 49°10' W 123°31'3 5.6
2018-Jun-08 06:24N 49°13' W 123°35'3 5.5
2018-Jun-08 05:53N 49°15' W 123°38'36 5.4
2018-Jun-07 23:17N 49°34' W 124°24'2 5.5
2018-Jun-07 22:59N 49°35' W 124°26'3 5.2
2018-Jun-07 22:27N 49°37' W 124°30'2 4.8
2018-Jun-07 22:00N 49°38' W 124°32'3 5.0
2018-Jun-07 21:30N 49°39' W 124°36'2 4.9
2018-Jun-07 21:00N 49°41' W 124°39'3 5.2
2018-Jun-07 20:30N 49°42' W 124°42'3 5.2
2018-Jun-07 20:00N 49°44' W 124°45'3 5.1
2018-Jun-07 19:30N 49°46' W 124°48'2 4.9
2018-Jun-07 19:00N 49°47' W 124°51'3 5.1
2018-Jun-07 18:30N 49°49' W 124°54'3 5.8
2018-Jun-07 18:00N 49°51' W 124°58'3 6.6
2018-Jun-07 17:29N 49°53' W 125°02'3 6.2
2018-Jun-07 17:00N 49°55' W 125°05'3 6.1
2018-Jun-07 16:30N 49°57' W 125°09'3 6.6
2018-Jun-07 15:59N 49°60' W 125°12'4 8.0
2018-Jun-07 15:30N 50°03' W 125°14'3 6.8
2018-Jun-07 15:00N 50°06' W 125°17'3 5.9
2018-Jun-07 14:30N 50°08' W 125°21'3 5.6
2018-Jun-07 14:01N 50°10' W 125°22'2 4.6
2018-Jun-07 13:30N 50°13' W 125°23'3 5.4
2018-Jun-07 13:00N 50°15' W 125°24'3 5.3
2018-Jun-07 12:26N 50°18' W 125°25'2 5.0
2018-Jun-07 12:00N 50°20' W 125°26'10 3.5
2018-Jun-07 09:12N 50°22' W 125°41'28 5.6
2018-Jun-07 04:08N 50°30' W 126°24'3 6.6
2018-Jun-07 03:44N 50°30' W 126°28'2 6.3
2018-Jun-07 03:27N 50°30' W 126°31'8 5.8
2018-Jun-07 02:09N 50°33' W 126°41'3 7.3
2018-Jun-07 01:42N 50°36' W 126°44'2 6.7
2018-Jun-07 01:28N 50°37' W 126°46'3 6.7
2018-Jun-07 00:59N 50°39' W 126°50'23 6.4
2018-Jun-06 21:26N 50°53' W 127°19'3 6.1
2018-Jun-06 21:00N 50°54' W 127°23'3 5.7
2018-Jun-06 20:30N 50°56' W 127°26'3 5.1
2018-Jun-06 20:00N 50°57' W 127°29'3 5.5
2018-Jun-06 19:30N 50°59' W 127°33'3 5.3
2018-Jun-06 19:00N 51°01' W 127°36'3 5.5
2018-Jun-06 18:30N 51°03' W 127°39'3 5.3
2018-Jun-06 17:59N 51°05' W 127°42'3 5.3
2018-Jun-06 17:28N 51°06' W 127°45'3 5.4
2018-Jun-06 17:00N 51°08' W 127°48'3 5.1
2018-Jun-06 16:30N 51°10' W 127°50'3 5.5
2018-Jun-06 16:00N 51°13' W 127°52'4 5.9
2018-Jun-06 15:19N 51°17' W 127°52'3 5.8
2018-Jun-06 14:47N 51°20' W 127°52'2 5.4
2018-Jun-06 14:26N 51°22' W 127°52'2 5.4
2018-Jun-06 13:59N 51°24' W 127°52'3 5.8
2018-Jun-06 13:30N 51°27' W 127°52'2 3.3
2018-Jun-06 13:00N 51°29' W 127°52'1 2.4
2018-Jun-06 12:30N 51°30' W 127°52'1 2.1
2018-Jun-06 12:00N 51°31' W 127°52'1 1.8
2018-Jun-06 11:30N 51°32' W 127°52'1 1.7
2018-Jun-06 11:00N 51°33' W 127°52'0 0.9
2018-Jun-06 10:30N 51°33' W 127°52'0 0.8
2018-Jun-06 10:00N 51°33' W 127°53'0 1.0
2018-Jun-06 09:31N 51°34' W 127°53'1 1.0
2018-Jun-06 09:00N 51°34' W 127°53'1 1.3
2018-Jun-06 08:31N 51°35' W 127°53'1 1.3
2018-Jun-06 08:00N 51°36' W 127°54'1 1.4
2018-Jun-06 07:30N 51°36' W 127°54'1 1.4
2018-Jun-06 07:00N 51°37' W 127°54'2 3.2
2018-Jun-06 06:30N 51°39' W 127°54'2 5.0
2018-Jun-06 06:01N 51°41' W 127°55'3 5.1
2018-Jun-06 05:30N 51°44' W 127°55'3 5.1
2018-Jun-06 05:01N 51°46' W 127°56'3 5.2
2018-Jun-06 04:31N 51°49' W 127°56'3 5.2
2018-Jun-06 04:00N 51°51' W 127°56'3 5.9
2018-Jun-06 03:30N 51°54' W 127°56'3 6.4
2018-Jun-06 03:00N 51°57' W 127°56'3 6.7
2018-Jun-06 02:31N 52°01' W 127°56'3 6.3
2018-Jun-06 02:00N 52°04' W 127°56'3 5.2
2018-Jun-06 01:30N 52°05' W 128°01'3 5.5
2018-Jun-06 01:00N 52°05' W 128°05'3 5.4
2018-Jun-06 00:30N 52°07' W 128°08'3 6.1
2018-Jun-06 00:00N 52°10' W 128°08'2 4.7
2018-Jun-05 23:30N 52°12' W 128°06'3 5.6
2018-Jun-05 23:00N 52°14' W 128°09'3 5.5
2018-Jun-05 22:29N 52°14' W 128°14'3 5.3
2018-Jun-05 21:59N 52°15' W 128°18'2 4.8
2018-Jun-05 21:30N 52°15' W 128°22'2 4.7
2018-Jun-05 21:00N 52°16' W 128°25'3 5.2
2018-Jun-05 20:30N 52°18' W 128°28'2 5.0
2018-Jun-05 20:00N 52°20' W 128°30'3 5.1
2018-Jun-05 19:30N 52°22' W 128°31'3 5.9
2018-Jun-05 18:59N 52°25' W 128°29'3 6.7
2018-Jun-05 18:30N 52°28' W 128°27'6 7.2
2018-Jun-05 17:38N 52°35' W 128°28'89 6.1
2018-Jun-05 03:06N 53°47' W 129°55'1 5.7
2018-Jun-05 02:59N 53°47' W 129°56'3 6.1
2018-Jun-05 02:30N 53°49' W 129°59'3 6.0
2018-Jun-05 02:00N 53°52' W 130°03'3 5.8
2018-Jun-05 01:30N 53°53' W 130°07'3 5.7
2018-Jun-05 01:00N 53°55' W 130°11'3 5.3
2018-Jun-05 00:30N 53°57' W 130°12'3 5.7
2018-Jun-05 00:00N 54°00' W 130°13'  

Dump ship's entire track history